Terminal Aerodrome Forecast
Issued by NWS

Home | Current Version | Previous Version | Text Only | Print | Product List | Glossary On
Versions: 1 2 3 4 5 6 7 8 9 10 11 12 13 14 15 16 17 18 19
000
FTAK31 PAJN 310541
TAFAYA
TAF
PAYA 310541Z 3106/0106 31004KT P6SM FEW025 FEW200
     FM311200 00000KT P6SM BCFG SCT004
     FM311800 VRB04KT P6SM FEW020 SCT200
     FM010000 28005KT P6SM FEW060 SCT150
      AMD LTD TO CLD VIS AND WIND 3101/3110=

USA.gov is the U.S. government's official web portal to all federal, state and local government web resources and services.